Time;durP1;ratioP1;P1;durP2;ratioP2;P2;SDS_P1;SDS_P2;PMS_P1;PMS_P2;Temp;Humidity;BMP_temperature;BMP_pressure;BME280_temperature;BME280_humidity;BME280_pressure;Samples;Min_cycle;Max_cycle;Signal;HPM_P1;HPM_P2
2021/12/28 00:00:15;;;;;;;14.88;5.97;;;;;;;;;;4976428;28;20070;-82
2021/12/28 00:02:42;;;;;;;11.38;6.22;;;;;;;;;;4976599;28;20549;-82
2021/12/28 00:05:09;;;;;;;8.82;4.82;;;;;;;;;;4976241;28;20031;-82
2021/12/28 00:07:36;;;;;;;13.60;4.63;;;;;;;;;;4976402;28;20027;-82
2021/12/28 00:10:02;;;;;;;13.65;9.55;;;;;;;;;;4976254;28;20035;-82
2021/12/28 00:12:31;;;;;;;16.15;8.55;;;;;;;;;;4976516;28;20107;-82
2021/12/28 00:15:06;;;;;;;31.92;20.30;;;;;;;;;;4976329;28;20093;-82
2021/12/28 00:20:18;;;;;;;18.33;9.85;;;;;;;;;;4975156;28;20429;-82
2021/12/28 00:22:44;;;;;;;18.40;10.32;;;;;;;;;;4973438;28;20034;-82
2021/12/28 00:25:11;;;;;;;12.98;7.63;;;;;;;;;;4973015;28;20749;-82
2021/12/28 00:27:38;;;;;;;25.17;16.13;;;;;;;;;;4973592;28;20031;-82
2021/12/28 00:30:04;;;;;;;17.58;10.80;;;;;;;;;;4972485;28;20027;-82
2021/12/28 00:32:30;;;;;;;14.95;8.35;;;;;;;;;;4973072;28;20065;-82
2021/12/28 00:34:56;;;;;;;13.43;7.68;;;;;;;;;;4972857;28;20043;-82
2021/12/28 00:37:22;;;;;;;12.38;7.07;;;;;;;;;;4973284;28;20034;-82
2021/12/28 00:39:48;;;;;;;18.60;10.73;;;;;;;;;;4973214;28;20046;-82
2021/12/28 00:42:14;;;;;;;18.75;9.20;;;;;;;;;;4972926;28;20031;-82
2021/12/28 00:44:41;;;;;;;19.83;11.15;;;;;;;;;;4973749;28;20035;-81
2021/12/28 00:47:07;;;;;;;14.63;7.85;;;;;;;;;;4973131;28;20034;-82
2021/12/28 00:49:33;;;;;;;13.50;6.55;;;;;;;;;;4973696;28;20446;-82
2021/12/28 00:51:59;;;;;;;25.63;14.50;;;;;;;;;;4972643;28;20138;-83
2021/12/28 00:54:25;;;;;;;28.08;13.80;;;;;;;;;;4973885;28;20773;-82
2021/12/28 00:56:51;;;;;;;13.48;7.50;;;;;;;;;;4972504;28;20041;-82
2021/12/28 00:59:17;;;;;;;25.05;11.80;;;;;;;;;;4973246;28;20125;-83
2021/12/28 01:01:43;;;;;;;25.63;9.23;;;;;;;;;;4972403;28;20129;-82
2021/12/28 01:04:09;;;;;;;16.10;6.55;;;;;;;;;;4973335;28;20079;-82
2021/12/28 01:06:35;;;;;;;15.02;5.97;;;;;;;;;;4972043;28;20078;-82
2021/12/28 01:09:01;;;;;;;19.73;7.45;;;;;;;;;;4973035;28;20072;-82
2021/12/28 01:11:27;;;;;;;19.65;8.75;;;;;;;;;;4972315;28;20485;-82
2021/12/28 01:13:53;;;;;;;14.65;6.50;;;;;;;;;;4973357;28;20034;-82
2021/12/28 01:16:19;;;;;;;15.70;9.52;;;;;;;;;;4972508;28;20037;-83
2021/12/28 01:18:45;;;;;;;22.00;16.42;;;;;;;;;;4955158;28;20034;-82
2021/12/28 01:21:11;;;;;;;18.17;9.63;;;;;;;;;;4972632;28;20042;-83
2021/12/28 01:23:37;;;;;;;25.23;13.85;;;;;;;;;;4972997;28;20467;-82
2021/12/28 01:26:04;;;;;;;19.02;10.02;;;;;;;;;;4972721;28;20027;-82
2021/12/28 01:28:30;;;;;;;16.70;7.45;;;;;;;;;;4971792;28;20083;-82
2021/12/28 01:30:56;;;;;;;23.65;13.10;;;;;;;;;;4972636;28;20027;-82
2021/12/28 01:33:22;;;;;;;24.85;12.82;;;;;;;;;;4970777;28;20051;-82
2021/12/28 01:35:50;;;;;;;22.13;11.80;;;;;;;;;;4972273;28;20054;-82
2021/12/28 01:38:16;;;;;;;14.35;5.35;;;;;;;;;;4971940;28;20150;-82
2021/12/28 01:40:43;;;;;;;13.75;6.05;;;;;;;;;;4972337;28;20053;-83
2021/12/28 01:43:12;;;;;;;19.15;6.05;;;;;;;;;;4971600;28;20039;-82
2021/12/28 01:45:43;;;;;;;14.75;7.60;;;;;;;;;;4972353;28;20035;-83
2021/12/28 01:48:10;;;;;;;11.40;6.03;;;;;;;;;;4954243;28;20123;-83
2021/12/28 01:50:37;;;;;;;11.93;4.88;;;;;;;;;;4970737;28;20398;-83
2021/12/28 01:53:03;;;;;;;15.00;4.82;;;;;;;;;;4970863;28;20113;-83
2021/12/28 01:55:30;;;;;;;10.98;4.00;;;;;;;;;;4970392;28;20038;-84
2021/12/28 01:57:56;;;;;;;9.45;4.25;;;;;;;;;;4955398;28;20035;-83
2021/12/28 02:00:23;;;;;;;14.13;5.22;;;;;;;;;;4971947;28;20231;-83
2021/12/28 02:02:49;;;;;;;10.88;4.60;;;;;;;;;;4972175;28;20038;-83
2021/12/28 02:05:15;;;;;;;8.27;3.03;;;;;;;;;;4971364;28;20109;-83
2021/12/28 02:07:41;;;;;;;8.05;2.35;;;;;;;;;;4972043;28;20130;-83
2021/12/28 02:10:07;;;;;;;6.47;1.92;;;;;;;;;;4971576;28;20093;-83
2021/12/28 02:12:33;;;;;;;8.50;3.22;;;;;;;;;;4971895;28;20026;-83
2021/12/28 02:15:05;;;;;;;12.32;6.50;;;;;;;;;;4971051;28;20035;-84
2021/12/28 02:17:32;;;;;;;9.55;5.03;;;;;;;;;;4971479;28;20026;-83
2021/12/28 02:20:03;;;;;;;13.73;4.43;;;;;;;;;;4971015;28;20038;-83
2021/12/28 02:22:29;;;;;;;12.45;6.75;;;;;;;;;;4971507;28;20073;-83
2021/12/28 02:24:55;;;;;;;12.77;4.45;;;;;;;;;;4970979;28;20125;-83
2021/12/28 02:27:21;;;;;;;12.88;5.28;;;;;;;;;;4971359;28;20046;-83
2021/12/28 02:29:47;;;;;;;8.95;3.83;;;;;;;;;;4971355;28;20800;-83
2021/12/28 02:32:13;;;;;;;13.07;4.38;;;;;;;;;;4966672;28;20063;-83
2021/12/28 02:34:39;;;;;;;10.75;4.05;;;;;;;;;;4951937;28;20040;-84
2021/12/28 02:37:05;;;;;;;13.95;4.28;;;;;;;;;;4952118;28;20048;-83
2021/12/28 02:39:31;;;;;;;10.43;4.57;;;;;;;;;;4966870;28;20965;-83
2021/12/28 02:41:57;;;;;;;15.63;6.40;;;;;;;;;;4951774;28;20031;-83
2021/12/28 02:44:23;;;;;;;11.55;4.93;;;;;;;;;;4950152;28;20043;-83
2021/12/28 02:46:49;;;;;;;10.25;4.35;;;;;;;;;;4950155;29;20041;-83
2021/12/28 02:49:15;;;;;;;8.45;4.03;;;;;;;;;;4952294;28;20142;-84
2021/12/28 02:51:41;;;;;;;12.52;5.20;;;;;;;;;;4951021;28;20446;-83
2021/12/28 02:54:07;;;;;;;18.60;8.90;;;;;;;;;;4966710;28;20054;-83
2021/12/28 02:56:34;;;;;;;20.10;10.35;;;;;;;;;;4962760;28;20028;-84
2021/12/28 02:59:01;;;;;;;20.48;10.02;;;;;;;;;;4966674;28;20043;-84
2021/12/28 03:01:28;;;;;;;16.02;7.40;;;;;;;;;;4951820;28;20027;-83
2021/12/28 03:03:58;;;;;;;14.50;6.78;;;;;;;;;;4952627;28;20039;-83
2021/12/28 03:06:24;;;;;;;19.52;6.35;;;;;;;;;;4966782;28;20386;-84
2021/12/28 03:08:53;;;;;;;12.50;5.97;;;;;;;;;;4950999;29;20043;-83
2021/12/28 03:11:19;;;;;;;17.92;6.20;;;;;;;;;;4950146;28;20451;-83
2021/12/28 03:13:51;;;;;;;15.38;5.32;;;;;;;;;;4951893;28;20122;-84
2021/12/28 03:16:17;;;;;;;15.30;6.83;;;;;;;;;;4966496;28;20114;-84
2021/12/28 03:18:44;;;;;;;14.48;5.70;;;;;;;;;;4966660;28;20043;-83
2021/12/28 03:21:13;;;;;;;9.90;4.90;;;;;;;;;;4966375;28;20125;-84
2021/12/28 03:23:40;;;;;;;12.10;5.10;;;;;;;;;;4950574;28;20035;-84
2021/12/28 03:26:07;;;;;;;15.93;5.97;;;;;;;;;;4950701;28;20039;-83
2021/12/28 03:28:34;;;;;;;13.15;4.95;;;;;;;;;;4966154;28;20788;-84
2021/12/28 03:31:01;;;;;;;17.85;7.35;;;;;;;;;;4966702;28;20079;-82
2021/12/28 03:33:28;;;;;;;9.38;2.90;;;;;;;;;;4968045;28;20047;-83
2021/12/28 03:35:54;;;;;;;10.55;3.25;;;;;;;;;;4969010;28;20466;-83
2021/12/28 03:38:20;;;;;;;4.85;1.13;;;;;;;;;;4970198;28;20097;-82
2021/12/28 03:40:46;;;;;;;2.72;0.73;;;;;;;;;;4970436;28;20026;-81
2021/12/28 03:43:12;;;;;;;5.35;1.10;;;;;;;;;;4969913;28;20046;-80
2021/12/28 03:45:39;;;;;;;5.97;0.98;;;;;;;;;;4970307;28;20037;-79
2021/12/28 03:48:05;;;;;;;4.05;1.05;;;;;;;;;;4969982;28;20064;-79
2021/12/28 03:50:32;;;;;;;8.10;1.38;;;;;;;;;;4970005;28;20035;-79
2021/12/28 03:52:58;;;;;;;5.68;1.88;;;;;;;;;;4954831;28;20070;-80
2021/12/28 03:55:25;;;;;;;5.57;1.50;;;;;;;;;;4951445;28;20094;-80
2021/12/28 03:57:51;;;;;;;2.65;0.65;;;;;;;;;;4956558;28;20043;-80
2021/12/28 04:00:18;;;;;;;5.40;1.70;;;;;;;;;;4973688;28;20034;-80
2021/12/28 04:02:45;;;;;;;7.82;2.03;;;;;;;;;;4945363;28;20046;-80
2021/12/28 04:05:13;;;;;;;9.93;2.60;;;;;;;;;;4956239;28;20034;-80
2021/12/28 04:07:40;;;;;;;8.95;2.28;;;;;;;;;;4973384;28;20589;-81
2021/12/28 04:10:08;;;;;;;8.20;2.42;;;;;;;;;;4955760;28;20031;-81
2021/12/28 04:12:34;;;;;;;9.13;3.17;;;;;;;;;;4973674;28;20033;-81
2021/12/28 04:15:00;;;;;;;8.48;2.80;;;;;;;;;;4973336;28;20030;-81
2021/12/28 04:17:27;;;;;;;9.68;3.33;;;;;;;;;;4956246;28;20033;-81
2021/12/28 04:19:53;;;;;;;10.05;3.28;;;;;;;;;;4973251;28;20031;-81
2021/12/28 04:22:19;;;;;;;8.23;2.28;;;;;;;;;;4973543;28;20445;-81
2021/12/28 04:24:45;;;;;;;10.00;3.25;;;;;;;;;;4955788;28;20386;-81
2021/12/28 04:27:12;;;;;;;8.85;2.70;;;;;;;;;;4973402;28;20041;-81
2021/12/28 04:29:38;;;;;;;8.18;1.35;;;;;;;;;;4972862;28;20118;-81
2021/12/28 04:32:04;;;;;;;2.08;0.88;;;;;;;;;;4972940;28;20055;-80
2021/12/28 04:34:30;;;;;;;2.42;0.40;;;;;;;;;;4973255;28;20085;-82
2021/12/28 04:36:56;;;;;;;1.23;0.30;;;;;;;;;;4973305;28;20035;-81
2021/12/28 04:39:22;;;;;;;4.50;0.60;;;;;;;;;;4973538;28;20102;-81
2021/12/28 04:41:48;;;;;;;4.47;0.40;;;;;;;;;;4955678;28;20720;-81
2021/12/28 04:44:21;;;;;;;3.20;0.20;;;;;;;;;;4973292;28;20776;-81
2021/12/28 04:46:47;;;;;;;5.65;0.40;;;;;;;;;;4955090;28;20156;-80
2021/12/28 04:49:15;;;;;;;4.15;0.60;;;;;;;;;;4973153;28;20151;-81
2021/12/28 04:51:42;;;;;;;3.33;0.70;;;;;;;;;;4972713;28;20774;-81
2021/12/28 04:54:11;;;;;;;0.32;0.03;;;;;;;;;;4973386;28;20450;-81
2021/12/28 04:56:38;;;;;;;1.67;0.20;;;;;;;;;;4971600;28;20033;-81
2021/12/28 04:59:04;;;;;;;1.00;0.20;;;;;;;;;;4973282;28;20035;-81
2021/12/28 05:01:30;;;;;;;0.73;0.10;;;;;;;;;;4972385;28;20066;-81
2021/12/28 05:03:56;;;;;;;0.85;0.10;;;;;;;;;;4972794;28;20073;-81
2021/12/28 05:06:22;;;;;;;0.47;0.20;;;;;;;;;;4971870;28;20470;-81
2021/12/28 05:08:48;;;;;;;3.58;0.70;;;;;;;;;;4971627;28;20035;-81
2021/12/28 05:11:14;;;;;;;0.70;0.20;;;;;;;;;;4972586;28;20733;-81
2021/12/28 05:13:41;;;;;;;0.75;0.20;;;;;;;;;;4972362;28;20066;-81
2021/12/28 05:16:07;;;;;;;0.57;0.10;;;;;;;;;;4971910;28;20045;-80
2021/12/28 05:18:33;;;;;;;4.90;0.40;;;;;;;;;;4972449;28;20090;-80
2021/12/28 05:20:59;;;;;;;0.88;0.32;;;;;;;;;;4972116;28;20042;-81
2021/12/28 05:23:25;;;;;;;2.05;0.30;;;;;;;;;;4972866;28;20168;-81
2021/12/28 05:25:51;;;;;;;1.73;0.25;;;;;;;;;;4971820;28;20421;-81
2021/12/28 05:28:17;;;;;;;1.40;0.30;;;;;;;;;;4972780;28;20513;-81
2021/12/28 05:30:43;;;;;;;0.90;0.20;;;;;;;;;;4972235;28;20030;-81
2021/12/28 05:33:09;;;;;;;0.60;0.15;;;;;;;;;;4972098;28;20074;-81
2021/12/28 05:35:35;;;;;;;2.10;0.17;;;;;;;;;;4972029;28;20034;-80
2021/12/28 05:38:01;;;;;;;1.65;0.25;;;;;;;;;;4972058;28;20512;-80
2021/12/28 05:40:27;;;;;;;0.77;0.20;;;;;;;;;;4972397;28;20026;-80
2021/12/28 05:42:54;;;;;;;2.80;0.35;;;;;;;;;;4971656;28;20035;-81
2021/12/28 05:45:20;;;;;;;1.00;0.30;;;;;;;;;;4972065;28;20030;-80
2021/12/28 05:47:46;;;;;;;2.45;0.28;;;;;;;;;;4953758;28;20125;-81
2021/12/28 05:50:12;;;;;;;0.60;0.10;;;;;;;;;;4972218;28;20142;-80
2021/12/28 05:52:38;;;;;;;0.90;0.20;;;;;;;;;;4971587;28;20529;-80
2021/12/28 05:55:05;;;;;;;0.32;0.20;;;;;;;;;;4971983;28;20073;-81
2021/12/28 05:57:31;;;;;;;0.47;0.10;;;;;;;;;;4971083;28;20126;-82
2021/12/28 05:59:57;;;;;;;0.90;0.20;;;;;;;;;;4971667;28;20041;-81
2021/12/28 06:02:24;;;;;;;1.35;0.10;;;;;;;;;;4964690;28;20561;-81
2021/12/28 06:04:50;;;;;;;0.65;0.10;;;;;;;;;;4971461;28;20118;-81
2021/12/28 06:07:16;;;;;;;1.40;0.20;;;;;;;;;;4971116;28;20165;-82
2021/12/28 06:09:42;;;;;;;1.00;0.38;;;;;;;;;;4972223;28;20039;-82
2021/12/28 06:12:08;;;;;;;1.08;0.20;;;;;;;;;;4971385;28;20034;-82
2021/12/28 06:14:34;;;;;;;2.67;0.40;;;;;;;;;;4970982;28;20058;-82
2021/12/28 06:17:00;;;;;;;7.50;1.17;;;;;;;;;;4970743;28;20039;-82
2021/12/28 06:19:26;;;;;;;4.30;1.42;;;;;;;;;;4953182;28;20868;-82
2021/12/28 06:21:52;;;;;;;0.70;0.22;;;;;;;;;;4953378;28;20038;-82
2021/12/28 06:24:18;;;;;;;2.55;0.55;;;;;;;;;;4971550;28;20035;-82
2021/12/28 06:26:44;;;;;;;3.47;0.80;;;;;;;;;;4969208;28;20676;-82
2021/12/28 06:29:11;;;;;;;5.18;2.45;;;;;;;;;;4954276;28;20038;-82
2021/12/28 06:31:37;;;;;;;2.35;0.35;;;;;;;;;;4970941;28;20070;-81
2021/12/28 06:34:04;;;;;;;6.65;2.33;;;;;;;;;;4968715;28;20070;-82
2021/12/28 06:36:30;;;;;;;5.15;0.98;;;;;;;;;;4971461;28;20046;-82
2021/12/28 06:38:57;;;;;;;3.80;1.00;;;;;;;;;;4971211;28;20042;-83
2021/12/28 06:41:23;;;;;;;4.65;1.10;;;;;;;;;;4970126;28;20037;-83
2021/12/28 06:43:49;;;;;;;17.88;11.32;;;;;;;;;;4970942;28;20043;-82
2021/12/28 06:46:15;;;;;;;6.63;2.97;;;;;;;;;;4971125;28;20041;-83
2021/12/28 06:48:41;;;;;;;47.20;24.48;;;;;;;;;;4952962;28;20046;-83
2021/12/28 06:51:08;;;;;;;5.13;1.60;;;;;;;;;;4971032;28;20030;-82
2021/12/28 06:53:34;;;;;;;1.95;0.50;;;;;;;;;;4971245;28;20128;-83
2021/12/28 06:56:03;;;;;;;1.70;0.43;;;;;;;;;;4971037;28;20035;-83
2021/12/28 06:58:29;;;;;;;1.35;0.40;;;;;;;;;;4962817;28;20087;-84
2021/12/28 07:00:55;;;;;;;2.92;1.00;;;;;;;;;;4970266;28;20046;-84
2021/12/28 07:03:21;;;;;;;1.63;0.60;;;;;;;;;;4970815;28;20385;-84
2021/12/28 07:05:47;;;;;;;3.55;1.45;;;;;;;;;;4970289;28;20035;-84
2021/12/28 07:08:14;;;;;;;4.07;0.90;;;;;;;;;;4968335;28;20045;-84
2021/12/28 07:10:40;;;;;;;6.60;1.50;;;;;;;;;;4970206;28;20528;-84
2021/12/28 07:13:07;;;;;;;1.42;0.40;;;;;;;;;;4970254;28;20490;-82
2021/12/28 07:15:33;;;;;;;0.68;0.40;;;;;;;;;;4952537;28;20054;-84
2021/12/28 07:17:59;;;;;;;1.50;0.40;;;;;;;;;;4953554;28;20037;-84
2021/12/28 07:20:25;;;;;;;1.50;0.45;;;;;;;;;;4970149;28;20481;-83
2021/12/28 07:22:51;;;;;;;6.10;1.90;;;;;;;;;;4952836;28;20042;-84
2021/12/28 07:25:18;;;;;;;7.68;3.03;;;;;;;;;;4969908;28;20061;-83
2021/12/28 07:27:44;;;;;;;5.32;2.28;;;;;;;;;;4970834;28;20086;-83
2021/12/28 07:30:11;;;;;;;6.43;2.45;;;;;;;;;;4953858;28;20793;-83
2021/12/28 07:32:37;;;;;;;4.68;1.38;;;;;;;;;;4972118;28;20038;-82
2021/12/28 07:35:03;;;;;;;5.80;1.67;;;;;;;;;;4974472;28;20430;-84
2021/12/28 07:37:29;;;;;;;7.10;1.70;;;;;;;;;;4973707;28;20069;-84
2021/12/28 07:39:55;;;;;;;2.45;0.90;;;;;;;;;;4969590;28;20082;-84
2021/12/28 07:42:21;;;;;;;14.90;12.13;;;;;;;;;;4957001;28;20057;-84
2021/12/28 07:44:49;;;;;;;3.80;1.30;;;;;;;;;;4974022;28;20042;-83
2021/12/28 07:47:15;;;;;;;6.13;2.03;;;;;;;;;;4973598;28;20078;-85
2021/12/28 07:49:41;;;;;;;5.18;1.20;;;;;;;;;;4974716;28;20103;-84
2021/12/28 07:52:07;;;;;;;13.02;6.72;;;;;;;;;;4971600;28;20041;-84
2021/12/28 07:54:33;;;;;;;10.10;4.60;;;;;;;;;;4970269;28;20062;-84
2021/12/28 07:56:59;;;;;;;7.95;4.38;;;;;;;;;;4953018;28;20085;-85
2021/12/28 07:59:25;;;;;;;8.40;4.05;;;;;;;;;;4971804;28;20489;-85
2021/12/28 08:01:51;;;;;;;8.65;5.00;;;;;;;;;;4955188;28;20031;-84
2021/12/28 08:04:17;;;;;;;38.08;19.67;;;;;;;;;;4971658;28;20034;-84
2021/12/28 08:06:44;;;;;;;34.90;20.48;;;;;;;;;;4954290;28;20027;-85
2021/12/28 08:09:10;;;;;;;20.42;11.63;;;;;;;;;;4964657;28;20113;-84
2021/12/28 08:11:37;;;;;;;12.85;7.18;;;;;;;;;;4968112;28;20048;-84
2021/12/28 08:14:04;;;;;;;16.55;9.30;;;;;;;;;;4972462;28;20067;-85
2021/12/28 08:16:30;;;;;;;15.93;10.07;;;;;;;;;;4951781;28;20102;-85
2021/12/28 08:18:56;;;;;;;13.15;8.05;;;;;;;;;;4972318;28;20047;-84
2021/12/28 08:21:22;;;;;;;14.82;8.93;;;;;;;;;;4971607;28;20065;-85
2021/12/28 08:23:48;;;;;;;18.33;11.02;;;;;;;;;;4955377;28;20041;-85
2021/12/28 08:26:16;;;;;;;17.13;11.40;;;;;;;;;;4970845;28;20027;-84
2021/12/28 08:28:42;;;;;;;14.68;8.93;;;;;;;;;;4954024;28;20050;-83
2021/12/28 08:31:08;;;;;;;14.15;9.52;;;;;;;;;;4972379;28;20355;-84
2021/12/28 08:33:34;;;;;;;8.48;5.47;;;;;;;;;;4953935;28;20061;-85
2021/12/28 08:36:00;;;;;;;9.02;6.53;;;;;;;;;;4971169;28;20131;-85
2021/12/28 08:38:27;;;;;;;11.80;6.70;;;;;;;;;;4969701;28;20039;-84
2021/12/28 08:40:54;;;;;;;10.27;6.15;;;;;;;;;;4948647;28;20030;-85
2021/12/28 08:43:20;;;;;;;19.23;14.65;;;;;;;;;;4970995;28;20437;-85
2021/12/28 08:45:46;;;;;;;16.35;13.93;;;;;;;;;;4952511;28;20038;-85
2021/12/28 08:48:12;;;;;;;101.38;70.82;;;;;;;;;;4973575;28;20149;-84
2021/12/28 08:50:38;;;;;;;54.65;37.67;;;;;;;;;;4969987;28;20097;-85
2021/12/28 08:53:05;;;;;;;8.48;2.97;;;;;;;;;;4973686;28;20113;-85
2021/12/28 08:55:31;;;;;;;4.22;2.05;;;;;;;;;;4972955;28;20043;-84
2021/12/28 08:57:57;;;;;;;5.30;3.17;;;;;;;;;;4955287;28;20039;-83
2021/12/28 09:00:25;;;;;;;19.55;12.85;;;;;;;;;;4968383;28;20043;-84
2021/12/28 09:02:52;;;;;;;11.82;5.95;;;;;;;;;;4955018;28;20134;-84
2021/12/28 09:05:19;;;;;;;7.90;4.72;;;;;;;;;;4970137;28;20137;-84
2021/12/28 09:07:45;;;;;;;9.63;5.50;;;;;;;;;;4965065;28;20035;-83
2021/12/28 09:10:11;;;;;;;11.45;7.05;;;;;;;;;;4968036;28;20031;-84
2021/12/28 09:12:37;;;;;;;11.88;7.22;;;;;;;;;;4972428;28;20046;-85
2021/12/28 09:15:04;;;;;;;17.58;12.25;;;;;;;;;;4970158;28;20122;-84
2021/12/28 09:17:30;;;;;;;11.82;7.20;;;;;;;;;;4969963;28;20039;-84
2021/12/28 09:19:56;;;;;;;9.00;5.70;;;;;;;;;;4972929;28;20039;-84
2021/12/28 09:22:22;;;;;;;4.68;2.60;;;;;;;;;;4972263;28;20027;-84
2021/12/28 09:24:48;;;;;;;5.75;2.80;;;;;;;;;;4971641;28;20462;-85
2021/12/28 09:27:14;;;;;;;6.78;3.42;;;;;;;;;;4954152;28;20062;-84
2021/12/28 09:29:43;;;;;;;6.88;3.97;;;;;;;;;;4972902;28;20047;-84
2021/12/28 09:32:09;;;;;;;10.48;6.80;;;;;;;;;;4970940;28;20043;-84
2021/12/28 09:34:35;;;;;;;7.47;3.67;;;;;;;;;;4973132;28;20035;-86
2021/12/28 09:37:01;;;;;;;6.47;3.95;;;;;;;;;;4946645;28;20409;-85
2021/12/28 09:39:28;;;;;;;7.57;3.95;;;;;;;;;;4972736;28;20109;-85
2021/12/28 09:41:58;;;;;;;4.90;1.42;;;;;;;;;;4972415;28;20022;-84
2021/12/28 09:44:25;;;;;;;3.20;1.10;;;;;;;;;;4954462;28;20066;-84
2021/12/28 09:46:51;;;;;;;4.20;1.65;;;;;;;;;;4954592;28;20074;-84
2021/12/28 09:49:17;;;;;;;5.07;1.70;;;;;;;;;;4972336;28;20038;-84
2021/12/28 09:51:44;;;;;;;3.85;1.85;;;;;;;;;;4954508;28;20386;-85
2021/12/28 09:54:10;;;;;;;5.60;1.58;;;;;;;;;;4953442;28;20038;-83
2021/12/28 09:56:37;;;;;;;3.05;1.42;;;;;;;;;;4953130;28;20822;-84
2021/12/28 09:59:04;;;;;;;4.43;1.65;;;;;;;;;;4953807;28;20066;-85
2021/12/28 10:01:30;;;;;;;6.25;2.60;;;;;;;;;;4969651;28;20022;-86
2021/12/28 10:03:57;;;;;;;10.32;5.65;;;;;;;;;;4965572;28;20046;-85
2021/12/28 10:06:25;;;;;;;13.10;7.13;;;;;;;;;;4953530;28;20038;-85
2021/12/28 10:09:09;;;;;;;6.50;3.58;;;;;;;;;;4971069;28;20087;-84
2021/12/28 10:11:53;;;;;;;9.10;4.03;;;;;;;;;;4969575;28;20150;-84
2021/12/28 10:14:19;;;;;;;5.60;2.42;;;;;;;;;;4954234;28;20066;-84
2021/12/28 10:16:48;;;;;;;5.88;1.77;;;;;;;;;;4972877;28;20030;-83
2021/12/28 10:19:33;;;;;;;6.63;2.60;;;;;;;;;;4959622;28;20111;-83
2021/12/28 10:22:18;;;;;;;6.55;3.00;;;;;;;;;;4970797;28;20031;-84
2021/12/28 10:24:44;;;;;;;12.35;8.13;;;;;;;;;;4971940;28;20055;-85
2021/12/28 10:27:10;;;;;;;8.70;5.40;;;;;;;;;;4968132;28;20027;-86
2021/12/28 10:29:39;;;;;;;7.38;3.35;;;;;;;;;;4951964;28;20043;-86
2021/12/28 10:32:24;;;;;;;7.60;3.28;;;;;;;;;;4961971;28;20050;-85
2021/12/28 10:34:53;;;;;;;11.88;5.90;;;;;;;;;;4962985;28;20078;-84
2021/12/28 10:37:22;;;;;;;13.38;8.13;;;;;;;;;;4971147;28;20477;-82
2021/12/28 10:39:51;;;;;;;12.57;7.10;;;;;;;;;;4971522;28;20126;-84
2021/12/28 10:42:35;;;;;;;10.57;6.97;;;;;;;;;;4954253;28;20066;-85
2021/12/28 10:45:01;;;;;;;18.08;10.80;;;;;;;;;;4969688;28;20060;-86
2021/12/28 10:47:28;;;;;;;12.80;7.72;;;;;;;;;;4969592;28;20030;-86
2021/12/28 10:49:54;;;;;;;30.10;24.27;;;;;;;;;;4969757;28;20039;-87
2021/12/28 10:52:37;;;;;;;26.83;22.52;;;;;;;;;;4953839;28;20027;-85
2021/12/28 10:55:19;;;;;;;8.23;4.53;;;;;;;;;;4953140;28;20035;-86
2021/12/28 10:57:45;;;;;;;19.83;12.45;;;;;;;;;;4969314;28;20042;-85
2021/12/28 11:00:26;;;;;;;12.82;9.73;;;;;;;;;;4972223;28;20038;-86
2021/12/28 11:03:11;;;;;;;14.85;9.55;;;;;;;;;;4943768;28;20039;-85
2021/12/28 11:05:37;;;;;;;16.42;11.52;;;;;;;;;;4970586;28;20148;-86
2021/12/28 11:08:07;;;;;;;8.63;5.53;;;;;;;;;;4962078;28;20470;-86
2021/12/28 11:10:34;;;;;;;13.85;6.50;;;;;;;;;;4952140;28;20031;-85
2021/12/28 11:13:01;;;;;;;16.38;7.80;;;;;;;;;;4953497;28;20035;-85
2021/12/28 11:15:27;;;;;;;8.55;5.38;;;;;;;;;;4966388;28;20031;-85
2021/12/28 11:17:53;;;;;;;8.85;4.95;;;;;;;;;;4949214;28;20027;-84
2021/12/28 11:20:30;;;;;;;8.82;4.45;;;;;;;;;;4979878;28;20039;-85
2021/12/28 11:23:15;;;;;;;9.82;5.18;;;;;;;;;;4952702;28;20096;-88
2021/12/28 11:25:42;;;;;;;10.73;6.90;;;;;;;;;;4954183;28;20614;-88
2021/12/28 11:28:16;;;;;;;12.55;7.50;;;;;;;;;;4968712;28;20043;-86
2021/12/28 11:30:57;;;;;;;14.25;9.15;;;;;;;;;;4950506;28;20812;-87
2021/12/28 11:33:23;;;;;;;11.95;7.30;;;;;;;;;;4969959;28;20055;-86
2021/12/28 11:35:49;;;;;;;21.42;16.00;;;;;;;;;;4971313;28;20481;-85
2021/12/28 11:38:15;;;;;;;18.88;9.88;;;;;;;;;;4971298;28;20043;-85
2021/12/28 11:40:41;;;;;;;12.77;8.50;;;;;;;;;;4969691;28;20031;-84
2021/12/28 11:43:07;;;;;;;10.32;6.63;;;;;;;;;;4952649;28;20070;-84
2021/12/28 11:45:34;;;;;;;12.45;6.75;;;;;;;;;;4953737;28;20118;-85
2021/12/28 11:48:00;;;;;;;7.88;4.35;;;;;;;;;;4953807;28;20050;-85
2021/12/28 11:50:26;;;;;;;6.25;3.22;;;;;;;;;;4971903;28;20106;-86
2021/12/28 11:52:52;;;;;;;6.80;4.28;;;;;;;;;;4970255;28;20043;-87
2021/12/28 11:55:19;;;;;;;6.70;4.63;;;;;;;;;;4953485;28;20030;-86
2021/12/28 11:57:53;;;;;;;9.57;6.80;;;;;;;;;;4952986;28;20038;-86
2021/12/28 12:00:22;;;;;;;12.70;8.60;;;;;;;;;;4959764;28;20023;-87
2021/12/28 12:02:49;;;;;;;14.82;10.57;;;;;;;;;;4952330;28;20042;-86
2021/12/28 12:05:19;;;;;;;16.77;11.93;;;;;;;;;;4953593;28;20033;-87
2021/12/28 12:07:46;;;;;;;28.35;20.20;;;;;;;;;;4949125;28;20047;-88
2021/12/28 12:10:14;;;;;;;26.80;22.27;;;;;;;;;;4948139;28;20045;-86
2021/12/28 12:12:43;;;;;;;15.75;11.43;;;;;;;;;;4951423;28;20027;-88
2021/12/28 12:15:10;;;;;;;15.38;10.75;;;;;;;;;;4934727;29;20058;-87
2021/12/28 12:17:37;;;;;;;16.02;9.77;;;;;;;;;;4943130;28;20035;-86
2021/12/28 12:20:16;;;;;;;15.70;8.70;;;;;;;;;;4956962;28;20064;-86
2021/12/28 12:22:43;;;;;;;15.82;10.20;;;;;;;;;;4957066;28;20121;-86
2021/12/28 12:25:11;;;;;;;10.00;6.70;;;;;;;;;;4956624;28;20073;-86
2021/12/28 12:27:37;;;;;;;10.07;7.47;;;;;;;;;;4957124;28;20831;-86
2021/12/28 12:30:04;;;;;;;8.18;5.47;;;;;;;;;;4956578;28;20078;-86
2021/12/28 12:32:50;;;;;;;15.95;7.35;;;;;;;;;;4972445;28;20486;-86
2021/12/28 12:35:30;;;;;;;12.60;8.00;;;;;;;;;;4956555;28;20028;-86
2021/12/28 12:37:57;;;;;;;14.80;8.73;;;;;;;;;;4957530;28;20046;-86
2021/12/28 12:40:23;;;;;;;20.05;13.10;;;;;;;;;;4972882;28;20153;-85
2021/12/28 12:43:08;;;;;;;19.60;11.65;;;;;;;;;;4972856;28;20047;-86
2021/12/28 12:45:52;;;;;;;17.85;9.55;;;;;;;;;;4973569;28;20038;-86
2021/12/28 12:48:37;;;;;;;6.50;2.70;;;;;;;;;;4944583;28;20510;-86
2021/12/28 12:51:29;;;;;;;5.22;2.50;;;;;;;;;;4956213;28;20069;-86
2021/12/28 12:53:59;;;;;;;;;;;;;;;;;;4953624;28;20055;-86
2021/12/28 12:56:36;;;;;;;3.33;1.30;;;;;;;;;;4972550;28;19910;-86
2021/12/28 12:59:07;;;;;;;7.10;3.30;;;;;;;;;;4957039;28;20039;-86
2021/12/28 13:01:53;;;;;;;5.20;2.13;;;;;;;;;;4956939;28;20146;-86
2021/12/28 13:04:25;;;;;;;6.82;3.35;;;;;;;;;;4956495;28;20042;-86
2021/12/28 13:06:51;;;;;;;;;;;;;;;;;;4956262;28;20652;-86
2021/12/28 13:09:17;;;;;;;8.43;2.55;;;;;;;;;;4956327;28;19985;-86
2021/12/28 13:11:44;;;;;;;4.47;1.40;;;;;;;;;;4956292;28;20056;-86
2021/12/28 13:14:10;;;;;;;4.38;1.90;;;;;;;;;;4955597;28;20042;-86
2021/12/28 13:16:36;;;;;;;8.50;3.75;;;;;;;;;;4955343;28;20057;-85
2021/12/28 13:19:20;;;;;;;9.23;3.95;;;;;;;;;;4956119;28;20047;-86
2021/12/28 13:22:06;;;;;;;5.00;1.60;;;;;;;;;;4954341;28;20035;-86
2021/12/28 13:24:33;;;;;;;10.63;4.78;;;;;;;;;;4953127;29;20039;-86
2021/12/28 13:27:01;;;;;;;10.43;4.25;;;;;;;;;;4948159;28;20053;-86
2021/12/28 13:29:34;;;;;;;15.93;10.85;;;;;;;;;;4955779;28;20082;-86
2021/12/28 13:32:12;;;;;;;10.45;6.22;;;;;;;;;;4955544;28;20773;-85
2021/12/28 13:34:57;;;;;;;7.38;4.45;;;;;;;;;;4947755;28;20137;-86
2021/12/28 13:37:32;;;;;;;7.80;4.78;;;;;;;;;;4955335;28;20039;-87
2021/12/28 13:39:59;;;;;;;7.63;3.22;;;;;;;;;;4955855;28;20045;-85
2021/12/28 13:42:25;;;;;;;8.13;4.18;;;;;;;;;;4955935;28;20026;-85
2021/12/28 13:44:51;;;;;;;10.02;6.00;;;;;;;;;;4955839;28;20513;-86
2021/12/28 13:47:19;;;;;;;10.88;6.00;;;;;;;;;;4970914;28;20070;-83
2021/12/28 13:49:59;;;;;;;11.80;7.95;;;;;;;;;;4972908;28;20470;-83
2021/12/28 13:52:25;;;;;;;12.57;8.40;;;;;;;;;;4972095;28;20062;-83
2021/12/28 13:54:51;;;;;;;14.95;10.18;;;;;;;;;;4972276;28;20059;-84
2021/12/28 13:57:19;;;;;;;10.80;6.20;;;;;;;;;;4954913;28;20075;-84
2021/12/28 13:59:45;;;;;;;10.10;5.88;;;;;;;;;;4972712;28;20113;-83
2021/12/28 14:02:13;;;;;;;24.60;18.05;;;;;;;;;;4972097;28;20042;-84
2021/12/28 14:04:39;;;;;;;12.35;7.20;;;;;;;;;;4972201;28;20142;-85
2021/12/28 14:07:05;;;;;;;15.38;9.05;;;;;;;;;;4954058;28;20015;-84
2021/12/28 14:09:31;;;;;;;7.28;3.78;;;;;;;;;;4942824;28;20043;-84
2021/12/28 14:12:00;;;;;;;4.28;2.17;;;;;;;;;;4967925;28;20026;-85
2021/12/28 14:14:28;;;;;;;5.57;1.60;;;;;;;;;;4956190;28;20470;-84
2021/12/28 14:16:55;;;;;;;8.10;2.97;;;;;;;;;;4969866;28;20034;-85
2021/12/28 14:19:23;;;;;;;6.82;3.47;;;;;;;;;;4955854;28;20149;-86
2021/12/28 14:21:49;;;;;;;8.00;3.85;;;;;;;;;;4962732;28;20030;-85
2021/12/28 14:24:15;;;;;;;81.18;28.85;;;;;;;;;;4950184;28;20043;-85
2021/12/28 14:26:42;;;;;;;22.58;12.25;;;;;;;;;;4948275;28;20034;-85
2021/12/28 14:29:09;;;;;;;10.45;4.13;;;;;;;;;;4978054;28;20046;-85
2021/12/28 14:31:35;;;;;;;9.23;3.45;;;;;;;;;;4953743;28;20027;-85
2021/12/28 14:34:01;;;;;;;49.10;17.00;;;;;;;;;;4958893;28;20454;-85
2021/12/28 14:36:32;;;;;;;29.88;12.63;;;;;;;;;;4966736;28;20069;-86
2021/12/28 14:39:21;;;;;;;15.68;8.60;;;;;;;;;;4978471;28;20062;-84
2021/12/28 14:41:51;;;;;;;33.45;22.95;;;;;;;;;;4946047;28;20118;-86